Aviation Digital Data Service (ADDS)

Output produced by METARs form (0942 UTC 02 April 2015)
found at http://aviationweather.gov/adds/metars/
 
KHKY 020542Z 0206/0306 00000KT P6SM SCT250 
     FM021000 00000KT P6SM SCT060 
     FM021300 16003KT P6SM BKN045 
     FM021800 20006KT P6SM OVC026 
     FM022200 21004KT P6SM VCSH OVC019 
     FM030200 22003KT P6SM VCSH OVC010